Time;durP1;ratioP1;P1;durP2;ratioP2;P2;SDS_P1;SDS_P2;PMS_P1;PMS_P2;Temp;Humidity;BMP_temperature;BMP_pressure;BME280_temperature;BME280_humidity;BME280_pressure;Samples;Min_cycle;Max_cycle;Signal;HPM_P1;HPM_P2
2024/04/12 00:01:09;;;;;;;2.53;1.38;;;18.10;84.90;;;;;;5345776;26;19997;-43
2024/04/12 00:03:36;;;;;;;2.33;1.50;;;18.00;84.90;;;;;;5344880;26;20007;-43
2024/04/12 00:06:14;;;;;;;2.53;1.60;;;18.10;85.00;;;;;;5346483;26;20005;-40
2024/04/12 00:08:46;;;;;;;3.38;1.63;;;18.10;85.00;;;;;;5346628;26;20008;-42
2024/04/12 00:11:12;;;;;;;2.65;1.30;;;18.10;84.80;;;;;;5346339;26;20005;-39
2024/04/12 00:13:41;;;;;;;2.63;1.40;;;18.00;84.70;;;;;;5346446;26;19997;-42
2024/04/12 00:16:08;;;;;;;2.22;1.35;;;18.00;84.70;;;;;;5346380;26;20001;-42
2024/04/12 00:18:36;;;;;;;3.30;1.38;;;18.00;84.70;;;;;;5346171;26;20012;-41
2024/04/12 00:21:03;;;;;;;4.13;1.15;;;18.10;85.60;;;;;;5346325;26;20081;-40
2024/04/12 00:23:35;;;;;;;3.35;1.40;;;18.00;84.70;;;;;;5346710;26;19997;-41
2024/04/12 00:26:02;;;;;;;3.85;1.27;;;18.00;84.80;;;;;;5346420;26;19993;-40
2024/04/12 00:28:32;;;;;;;2.15;1.20;;;18.00;84.80;;;;;;5346176;26;20008;-42
2024/04/12 00:31:01;;;;;;;2.92;1.20;;;18.00;84.80;;;;;;5345911;26;20037;-41
2024/04/12 00:33:32;;;;;;;2.30;1.40;;;18.00;84.80;;;;;;5346324;26;20027;-40
2024/04/12 00:36:08;;;;;;;2.28;1.10;;;18.00;84.80;;;;;;5346245;26;19993;-41
2024/04/12 00:38:35;;;;;;;3.50;1.33;;;18.00;84.80;;;;;;5345924;26;20023;-42
2024/04/12 00:41:14;;;;;;;3.55;1.33;;;17.90;84.70;;;;;;5346059;26;20008;-42
2024/04/12 00:43:45;;;;;;;2.70;1.58;;;18.00;84.80;;;;;;5344444;26;20004;-40
2024/04/12 00:46:14;;;;;;;4.10;1.52;;;17.90;84.80;;;;;;5346012;26;20070;-41
2024/04/12 00:48:41;;;;;;;3.33;1.20;;;18.00;84.70;;;;;;5345856;26;20467;-39
2024/04/12 00:51:09;;;;;;;2.17;1.30;;;18.00;84.70;;;;;;5345539;26;20008;-40
2024/04/12 00:53:38;;;;;;;2.10;0.90;;;17.90;84.60;;;;;;5345929;26;20001;-40
2024/04/12 00:56:06;;;;;;;1.75;1.13;;;17.90;84.60;;;;;;5345838;26;20001;-42
2024/04/12 00:58:35;;;;;;;3.00;1.35;;;17.90;84.70;;;;;;5345889;26;20444;-39
2024/04/12 01:01:15;;;;;;;2.45;1.15;;;17.90;84.60;;;;;;5345741;26;20008;-40
2024/04/12 01:03:47;;;;;;;1.98;1.20;;;17.90;84.60;;;;;;5345608;26;20024;-43
2024/04/12 01:06:17;;;;;;;1.70;1.05;;;17.90;84.60;;;;;;5345800;26;20393;-44
2024/04/12 01:08:46;;;;;;;3.17;1.33;;;17.90;84.60;;;;;;5346108;26;20004;-41
2024/04/12 01:11:13;;;;;;;3.60;1.35;;;17.90;84.60;;;;;;5345645;26;20494;-44
2024/04/12 01:13:40;;;;;;;2.85;1.13;;;17.90;84.60;;;;;;5344284;26;20001;-41
2024/04/12 01:16:07;;;;;;;2.13;0.90;;;17.90;84.60;;;;;;5345436;26;20342;-44
2024/04/12 01:18:33;;;;;;;3.25;1.13;;;17.90;84.50;;;;;;5345375;26;20004;-44
2024/04/12 01:21:10;;;;;;;2.97;1.10;;;17.90;84.50;;;;;;5345483;26;20354;-44
2024/04/12 01:23:37;;;;;;;2.22;1.17;;;17.90;84.50;;;;;;5345583;26;20008;-41
2024/04/12 01:26:03;;;;;;;1.90;0.95;;;17.90;84.50;;;;;;5345601;26;20000;-42
2024/04/12 01:28:30;;;;;;;1.77;1.10;;;17.90;84.50;;;;;;5345353;26;19996;-42
2024/04/12 01:31:00;;;;;;;1.77;0.90;;;17.90;84.60;;;;;;5345184;26;20473;-42
2024/04/12 01:33:27;;;;;;;4.00;1.40;;;17.90;84.40;;;;;;5343618;26;20004;-41
2024/04/12 01:35:55;;;;;;;1.40;1.00;;;17.80;84.40;;;;;;5345331;26;20078;-40
2024/04/12 01:38:21;;;;;;;2.00;0.98;;;17.90;84.40;;;;;;5343482;26;20001;-40
2024/04/12 01:40:56;;;;;;;1.92;1.10;;;17.90;84.30;;;;;;5345676;26;20011;-40
2024/04/12 01:43:23;;;;;;;3.05;1.25;;;17.80;84.30;;;;;;5345223;26;20005;-42
2024/04/12 01:45:54;;;;;;;1.65;0.90;;;17.80;84.40;;;;;;5345201;26;20012;-42
2024/04/12 01:48:22;;;;;;;3.65;1.00;;;17.90;84.30;;;;;;5344995;26;20327;-42
2024/04/12 01:50:51;;;;;;;2.50;1.20;;;17.80;84.10;;;;;;5344890;26;20465;-42
2024/04/12 01:53:21;;;;;;;3.53;1.30;;;17.90;84.20;;;;;;5345121;26;20485;-41
2024/04/12 01:55:50;;;;;;;1.83;1.00;;;17.80;84.20;;;;;;5345108;26;19997;-40
2024/04/12 01:58:19;;;;;;;1.60;0.90;;;17.80;84.20;;;;;;5344987;26;19997;-40
2024/04/12 02:00:52;;;;;;;1.92;0.80;;;17.80;84.20;;;;;;5343042;26;20001;-40
2024/04/12 02:03:17;;;;;;;2.78;1.30;;;17.80;84.30;;;;;;5345479;26;19997;-42
2024/04/12 02:05:44;;;;;;;3.47;1.30;;;17.80;84.20;;;;;;5344972;26;20008;-39
2024/04/12 02:08:19;;;;;;;2.17;1.10;;;17.80;84.20;;;;;;5343127;26;20012;-42
2024/04/12 02:10:48;;;;;;;3.17;1.10;;;17.80;84.20;;;;;;5344646;26;20070;-42
2024/04/12 02:13:17;;;;;;;1.58;0.90;;;17.80;84.20;;;;;;5344898;26;20494;-43
2024/04/12 02:15:48;;;;;;;2.33;1.17;;;17.80;84.20;;;;;;5345017;26;20071;-42
2024/04/12 02:18:14;;;;;;;1.60;0.95;;;17.80;84.20;;;;;;5344611;26;20025;-42
2024/04/12 02:20:44;;;;;;;1.63;1.00;;;17.80;84.20;;;;;;5344364;26;20008;-40
2024/04/12 02:23:13;;;;;;;1.90;0.90;;;17.70;84.10;;;;;;5344643;26;20005;-42
2024/04/12 02:25:40;;;;;;;2.20;1.08;;;17.80;84.20;;;;;;5346767;26;20450;-44
2024/04/12 02:28:11;;;;;;;1.67;0.98;;;17.70;84.10;;;;;;5347828;26;20037;-40
2024/04/12 02:30:53;;;;;;;1.25;0.80;;;17.70;84.10;;;;;;5347483;26;20012;-43
2024/04/12 02:33:20;;;;;;;2.38;1.10;;;17.70;84.20;;;;;;5347798;26;20013;-46
2024/04/12 02:35:46;;;;;;;2.30;1.08;;;17.70;84.10;;;;;;5346077;26;20354;-44
2024/04/12 02:38:16;;;;;;;3.30;1.17;;;17.70;84.10;;;;;;5347666;26;20008;-40
2024/04/12 02:40:47;;;;;;;2.42;1.02;;;17.70;84.10;;;;;;5347770;26;20001;-42
2024/04/12 02:43:15;;;;;;;2.42;1.00;;;17.70;84.10;;;;;;5347998;26;20458;-41
2024/04/12 02:46:09;;;;;;;3.33;1.10;;;17.70;84.10;;;;;;5347401;26;20008;-41
2024/04/12 02:48:36;;;;;;;1.73;0.90;;;17.70;84.10;;;;;;5347410;26;19997;-40
2024/04/12 02:51:05;;;;;;;3.08;1.10;;;17.70;84.10;;;;;;5347348;26;20005;-40
2024/04/12 02:53:32;;;;;;;2.38;1.10;;;17.70;84.10;;;;;;5347578;26;19997;-42
2024/04/12 02:56:02;;;;;;;2.33;0.98;;;17.70;84.00;;;;;;5347663;26;20001;-40
2024/04/12 02:58:40;;;;;;;1.92;1.20;;;17.70;84.00;;;;;;5347482;26;20042;-40
2024/04/12 03:01:10;;;;;;;3.50;1.13;;;17.70;84.00;;;;;;5347317;26;19993;-42
2024/04/12 03:03:45;;;;;;;2.10;1.00;;;17.70;84.10;;;;;;5347504;26;20461;-40
2024/04/12 03:06:16;;;;;;;2.65;1.30;;;17.70;84.10;;;;;;5347500;26;20273;-42
2024/04/12 03:08:44;;;;;;;1.40;0.85;;;17.60;84.00;;;;;;5347322;26;20005;-40
2024/04/12 03:11:14;;;;;;;4.03;0.90;;;17.60;84.00;;;;;;5347146;26;19997;-39
2024/04/12 03:13:44;;;;;;;1.35;0.80;;;17.60;84.00;;;;;;5347372;26;20417;-42
2024/04/12 03:16:13;;;;;;;1.58;0.90;;;17.60;84.00;;;;;;5347153;26;20012;-43
2024/04/12 03:18:42;;;;;;;2.75;1.00;;;17.60;84.00;;;;;;5347157;26;20008;-40
2024/04/12 03:21:08;;;;;;;2.00;1.20;;;17.60;83.90;;;;;;5346921;26;20009;-42
2024/04/12 03:23:34;;;;;;;3.42;1.08;;;17.60;83.90;;;;;;5347254;26;20524;-42
2024/04/12 03:26:01;;;;;;;1.65;0.75;;;17.60;83.90;;;;;;5347119;26;20012;-42
2024/04/12 03:28:30;;;;;;;1.92;1.00;;;17.60;83.90;;;;;;5347092;26;20361;-42
2024/04/12 03:30:56;;;;;;;1.83;1.02;;;17.60;83.90;;;;;;5346867;26;20008;-41
2024/04/12 03:33:21;;;;;;;2.13;1.02;;;17.60;83.90;;;;;;5347043;26;20000;-42
2024/04/12 03:35:47;;;;;;;5.28;1.20;;;17.60;83.90;;;;;;5346131;26;20007;-40
2024/04/12 03:38:25;;;;;;;1.73;1.08;;;17.60;83.90;;;;;;5346537;26;20327;-44
2024/04/12 03:41:00;;;;;;;2.50;1.02;;;17.60;83.80;;;;;;5346809;26;20008;-42
2024/04/12 03:43:27;;;;;;;1.50;0.90;;;17.60;83.70;;;;;;5346880;26;20005;-43
2024/04/12 03:46:00;;;;;;;1.75;1.10;;;17.60;83.60;;;;;;5347050;26;20361;-43
2024/04/12 03:48:26;;;;;;;2.58;0.90;;;17.60;83.60;;;;;;5346876;26;20005;-41
2024/04/12 03:51:06;;;;;;;2.13;1.20;;;17.60;83.50;;;;;;5346644;26;20008;-41
2024/04/12 03:53:32;;;;;;;1.60;0.77;;;17.60;83.50;;;;;;5347068;26;20013;-40
2024/04/12 03:55:57;;;;;;;2.20;0.88;;;17.60;84.30;;;;;;5346925;26;19997;-40
2024/04/12 03:58:24;;;;;;;1.95;1.00;;;17.60;83.50;;;;;;5346481;26;20041;-40
2024/04/12 04:00:51;;;;;;;2.17;1.10;;;17.60;83.60;;;;;;5346455;26;20475;-42
2024/04/12 04:03:35;;;;;;;1.30;0.80;;;17.60;83.50;;;;;;5346759;26;20012;-42
2024/04/12 04:06:05;;;;;;;2.88;1.15;;;17.60;83.50;;;;;;5346624;26;20036;-40
2024/04/12 04:08:48;;;;;;;1.73;1.00;;;17.60;83.50;;;;;;5346479;26;20458;-42
2024/04/12 04:11:17;;;;;;;2.55;0.88;;;17.50;83.40;;;;;;5346522;26;20012;-42
2024/04/12 04:13:46;;;;;;;2.17;1.05;;;17.50;83.50;;;;;;5346576;26;19993;-44
2024/04/12 04:16:16;;;;;;;1.52;1.00;;;17.50;83.50;;;;;;5346878;26;20007;-42
2024/04/12 04:18:48;;;;;;;3.20;1.10;;;17.50;83.50;;;;;;5346426;26;20008;-42
2024/04/12 04:21:14;;;;;;;1.33;0.98;;;17.50;83.50;;;;;;5346205;26;20009;-42
2024/04/12 04:23:42;;;;;;;3.30;0.90;;;17.50;83.40;;;;;;5346174;26;20455;-43
2024/04/12 04:26:08;;;;;;;2.17;0.90;;;17.50;83.50;;;;;;5346504;26;20346;-40
2024/04/12 04:28:38;;;;;;;3.35;1.00;;;17.50;83.50;;;;;;5346156;26;20009;-43
2024/04/12 04:31:06;;;;;;;3.67;0.90;;;17.50;83.50;;;;;;5346319;26;20469;-40
2024/04/12 04:33:38;;;;;;;3.38;1.00;;;17.50;83.40;;;;;;5346278;26;20071;-42
2024/04/12 04:36:09;;;;;;;2.90;1.13;;;17.50;83.40;;;;;;5346222;26;19993;-43
2024/04/12 04:38:41;;;;;;;2.50;0.90;;;17.40;83.40;;;;;;5346207;26;20443;-40
2024/04/12 04:41:07;;;;;;;2.33;1.00;;;17.50;83.40;;;;;;5346144;26;19997;-39
2024/04/12 04:43:33;;;;;;;1.20;0.82;;;17.50;83.40;;;;;;5346134;26;19996;-42
2024/04/12 04:46:25;;;;;;;2.03;0.90;;;17.50;83.50;;;;;;5346418;26;20000;-41
2024/04/12 04:48:45;;;;;;;2.58;1.02;;;17.40;83.40;;;;;;5345435;26;20051;-41
2024/04/12 04:51:11;;;;;;;2.47;1.00;;;17.40;83.40;;;;;;5345684;26;20036;-42
2024/04/12 04:53:37;;;;;;;3.65;1.10;;;17.50;83.40;;;;;;5346117;26;19997;-40
2024/04/12 04:56:05;;;;;;;3.20;1.02;;;17.40;83.30;;;;;;5345959;26;20008;-40
2024/04/12 04:58:34;;;;;;;1.17;0.80;;;17.40;83.30;;;;;;5346185;26;20070;-40
2024/04/12 05:01:01;;;;;;;2.25;1.00;;;17.50;83.40;;;;;;5345629;26;20011;-40
2024/04/12 05:03:27;;;;;;;1.60;1.10;;;17.40;83.30;;;;;;5346102;26;19997;-41
2024/04/12 05:05:53;;;;;;;1.95;1.00;;;17.40;83.40;;;;;;5345825;26;20079;-39
2024/04/12 05:08:20;;;;;;;2.28;0.93;;;17.40;83.40;;;;;;5345610;26;20005;-40
2024/04/12 05:10:46;;;;;;;2.33;1.00;;;17.40;83.40;;;;;;5345605;26;20326;-39
2024/04/12 05:13:12;;;;;;;2.42;1.08;;;17.40;83.50;;;;;;5345740;26;20019;-40
2024/04/12 05:18:08;;;;;;;2.13;1.00;;;17.40;83.70;;;;;;5345824;26;19997;-42
2024/04/12 05:20:43;;;;;;;3.00;1.02;;;17.40;83.50;;;;;;5345511;26;20040;-39
2024/04/12 05:23:13;;;;;;;2.45;1.20;;;17.30;83.50;;;;;;5345601;26;20001;-42
2024/04/12 05:25:49;;;;;;;2.95;1.10;;;17.30;83.50;;;;;;5345490;26;20509;-40
2024/04/12 05:28:15;;;;;;;2.28;1.10;;;17.40;83.50;;;;;;5345213;26;20450;-42
2024/04/12 05:30:44;;;;;;;1.40;0.90;;;17.30;83.40;;;;;;5345283;26;20037;-42
2024/04/12 05:33:10;;;;;;;2.38;1.02;;;17.40;83.60;;;;;;5345454;26;19997;-40
2024/04/12 05:35:37;;;;;;;1.58;0.95;;;17.30;83.50;;;;;;5345795;26;20030;-39
2024/04/12 05:38:09;;;;;;;2.03;1.10;;;17.30;83.60;;;;;;5345284;26;20350;-42
2024/04/12 05:40:42;;;;;;;2.70;1.10;;;17.30;83.60;;;;;;5345105;26;19997;-39
2024/04/12 05:43:17;;;;;;;1.88;1.00;;;17.30;83.60;;;;;;5345264;26;20029;-42
2024/04/12 05:45:55;;;;;;;2.22;1.25;;;17.30;83.60;;;;;;5345215;26;20332;-39
2024/04/12 05:48:21;;;;;;;2.40;0.90;;;17.30;83.70;;;;;;5345643;26;20085;-40
2024/04/12 05:50:48;;;;;;;2.83;1.13;;;17.30;83.70;;;;;;5345075;26;20005;-40
2024/04/12 05:53:18;;;;;;;1.50;0.90;;;17.30;83.80;;;;;;5345076;26;20001;-42
2024/04/12 05:55:44;;;;;;;2.38;1.02;;;17.30;83.90;;;;;;5345069;26;20008;-42
2024/04/12 05:58:14;;;;;;;1.58;1.00;;;17.20;83.80;;;;;;5344933;26;20012;-41
2024/04/12 06:00:43;;;;;;;2.10;1.00;;;17.30;83.90;;;;;;5347067;26;19997;-40
2024/04/12 06:03:14;;;;;;;2.10;1.00;;;17.30;83.90;;;;;;5348208;26;20333;-40
2024/04/12 06:05:43;;;;;;;2.05;1.20;;;17.30;84.00;;;;;;5348079;26;20338;-41
2024/04/12 06:08:12;;;;;;;2.13;1.00;;;17.30;84.70;;;;;;5348015;26;20000;-40
2024/04/12 06:10:39;;;;;;;2.33;1.00;;;17.20;84.00;;;;;;5346021;26;20354;-40
2024/04/12 06:13:07;;;;;;;1.67;0.90;;;17.30;84.10;;;;;;5348207;26;20005;-40
2024/04/12 06:15:36;;;;;;;1.52;0.80;;;17.20;84.10;;;;;;5348041;26;20078;-42
2024/04/12 06:18:05;;;;;;;2.50;1.15;;;17.20;84.10;;;;;;5347721;26;20074;-40
2024/04/12 06:20:31;;;;;;;3.60;1.58;;;17.20;84.30;;;;;;5347734;26;20001;-39
2024/04/12 06:23:06;;;;;;;3.45;1.38;;;17.20;84.30;;;;;;5347966;26;20324;-42
2024/04/12 06:25:43;;;;;;;2.75;1.10;;;17.20;84.30;;;;;;5348079;26;20001;-40
2024/04/12 06:28:12;;;;;;;2.58;0.98;;;17.20;84.40;;;;;;5347769;26;20490;-44
2024/04/12 06:30:46;;;;;;;2.88;1.30;;;17.20;84.50;;;;;;5347522;26;20008;-40
2024/04/12 06:33:19;;;;;;;1.15;0.77;;;17.20;84.60;;;;;;5347880;26;20005;-40
2024/04/12 06:35:45;;;;;;;2.13;1.08;;;17.20;84.50;;;;;;5347853;26;20001;-41
2024/04/12 06:38:17;;;;;;;3.25;1.10;;;17.20;84.60;;;;;;5347951;26;20017;-40
2024/04/12 06:40:53;;;;;;;1.67;0.98;;;17.20;84.70;;;;;;5347781;26;19993;-41
2024/04/12 06:43:20;;;;;;;1.60;1.00;;;17.20;84.90;;;;;;5347777;26;20001;-40
2024/04/12 06:46:00;;;;;;;4.07;1.35;;;17.20;85.10;;;;;;5347922;26;20001;-42
2024/04/12 06:48:26;;;;;;;1.90;1.20;;;17.20;85.10;;;;;;5347767;26;20354;-42
2024/04/12 06:50:56;;;;;;;1.63;0.90;;;17.20;85.20;;;;;;5347322;26;20520;-41
2024/04/12 06:53:24;;;;;;;1.88;1.00;;;17.20;86.10;;;;;;5347670;26;20008;-40
2024/04/12 06:55:57;;;;;;;2.17;1.10;;;17.20;85.40;;;;;;5347612;26;20008;-42
2024/04/12 06:58:25;;;;;;;1.85;1.05;;;17.10;85.50;;;;;;5347580;26;20463;-42
2024/04/12 07:00:57;;;;;;;2.65;0.90;;;17.10;85.50;;;;;;5347398;26;20392;-42
2024/04/12 07:03:27;;;;;;;2.45;1.13;;;17.10;85.50;;;;;;5347749;26;20423;-42
2024/04/12 07:05:54;;;;;;;2.08;1.02;;;17.20;85.50;;;;;;5347661;26;19997;-40
2024/04/12 07:08:21;;;;;;;3.63;1.13;;;17.20;85.50;;;;;;5347275;26;20001;-40
2024/04/12 07:10:51;;;;;;;2.08;1.05;;;17.20;86.20;;;;;;5346059;26;20005;-42
2024/04/12 07:13:17;;;;;;;1.52;0.98;;;17.20;85.40;;;;;;5347257;26;20012;-42
2024/04/12 07:15:46;;;;;;;2.20;0.93;;;17.30;85.30;;;;;;5347351;26;20005;-42
2024/04/12 07:18:11;;;;;;;1.85;1.20;;;17.30;85.20;;;;;;5347634;26;20335;-42
2024/04/12 07:20:44;;;;;;;2.95;1.02;;;17.30;85.10;;;;;;5347025;26;20075;-41
2024/04/12 07:23:10;;;;;;;1.42;0.95;;;17.40;85.10;;;;;;5347280;26;20428;-41
2024/04/12 07:25:39;;;;;;;1.55;0.93;;;17.40;85.00;;;;;;5347173;26;20001;-44
2024/04/12 07:28:08;;;;;;;3.13;1.20;;;17.40;85.00;;;;;;5347094;26;20011;-40
2024/04/12 07:30:34;;;;;;;1.80;1.02;;;17.40;84.90;;;;;;5347038;26;19996;-40
2024/04/12 07:33:05;;;;;;;1.52;0.90;;;17.50;84.90;;;;;;5347124;26;19997;-42
2024/04/12 07:35:32;;;;;;;1.48;0.93;;;17.50;84.90;;;;;;5345341;26;19996;-41
2024/04/12 07:38:01;;;;;;;1.17;0.80;;;17.50;84.80;;;;;;5346883;26;19997;-40
2024/04/12 07:40:31;;;;;;;2.17;0.85;;;17.60;84.90;;;;;;5347371;26;19993;-40
2024/04/12 07:43:08;;;;;;;1.27;0.82;;;17.60;84.80;;;;;;5347019;26;20041;-42
2024/04/12 07:45:37;;;;;;;2.63;0.88;;;17.60;84.70;;;;;;5346822;26;19992;-42
2024/04/12 07:50:46;;;;;;;2.28;0.80;;;17.70;84.70;;;;;;5346691;26;20055;-42
2024/04/12 07:53:21;;;;;;;2.58;0.80;;;17.70;84.60;;;;;;5346810;26;20075;-41
2024/04/12 07:56:22;;;;;;;1.10;0.70;;;17.70;84.60;;;;;;5346977;26;19993;-43
2024/04/12 07:58:42;;;;;;;2.00;0.80;;;17.80;84.50;;;;;;5347922;26;20462;-40
2024/04/12 08:01:15;;;;;;;1.98;1.10;;;17.80;84.40;;;;;;5346516;26;19996;-43
2024/04/12 08:03:42;;;;;;;0.70;0.63;;;17.90;84.40;;;;;;5346712;26;20454;-40
2024/04/12 08:06:36;;;;;;;1.17;0.70;;;17.90;84.40;;;;;;5346721;26;20001;-42
2024/04/12 08:09:05;;;;;;;1.55;1.05;;;17.90;84.30;;;;;;5346440;26;20015;-43
2024/04/12 08:11:35;;;;;;;1.58;0.80;;;18.00;84.30;;;;;;5344747;26;20483;-42
2024/04/12 08:14:08;;;;;;;1.77;0.95;;;18.00;84.30;;;;;;5346664;26;20446;-43
2024/04/12 08:16:46;;;;;;;2.55;1.00;;;18.00;84.20;;;;;;5346479;26;20000;-40
2024/04/12 08:19:14;;;;;;;1.65;0.82;;;18.10;84.20;;;;;;5346170;26;20332;-43
2024/04/12 08:21:44;;;;;;;1.00;0.80;;;18.10;84.90;;;;;;5346388;26;20001;-42
2024/04/12 08:24:14;;;;;;;1.70;0.70;;;18.20;84.80;;;;;;5345921;26;20000;-40
2024/04/12 08:26:46;;;;;;;1.27;0.77;;;18.20;84.00;;;;;;5346391;26;20008;-43
2024/04/12 08:29:20;;;;;;;2.55;0.90;;;18.20;83.90;;;;;;5346132;26;20408;-40
2024/04/12 08:31:47;;;;;;;1.63;0.70;;;18.30;83.90;;;;;;5346206;26;20001;-44
2024/04/12 08:34:15;;;;;;;1.70;0.93;;;18.30;84.60;;;;;;5346298;26;20000;-40
2024/04/12 08:36:43;;;;;;;1.05;0.70;;;18.30;83.80;;;;;;5346329;26;20070;-40
2024/04/12 08:39:12;;;;;;;2.03;0.82;;;18.40;83.80;;;;;;5345896;26;20493;-40
2024/04/12 08:41:38;;;;;;;2.03;0.90;;;18.40;83.70;;;;;;5346061;26;19993;-39
2024/04/12 08:44:09;;;;;;;1.70;0.73;;;18.40;83.70;;;;;;5345995;26;20009;-40
2024/04/12 08:46:37;;;;;;;1.98;0.80;;;18.50;83.70;;;;;;5346282;26;20004;-42
2024/04/12 08:49:03;;;;;;;0.93;0.70;;;18.50;83.60;;;;;;5340619;26;20320;-40
2024/04/12 08:51:33;;;;;;;9.15;3.30;;;18.50;83.60;;;;;;5331177;26;20005;-40
2024/04/12 08:54:05;;;;;;;10.73;3.80;;;18.60;83.70;;;;;;5313835;26;20076;-41
2024/04/12 08:56:30;;;;;;;6.88;2.90;;;18.70;83.60;;;;;;5311500;27;20338;-41
2024/04/12 08:58:59;;;;;;;9.10;3.08;;;18.70;83.60;;;;;;5311579;27;20076;-41
2024/04/12 09:01:26;;;;;;;8.82;2.70;;;18.70;83.60;;;;;;5311342;27;20744;-42
2024/04/12 09:04:14;;;;;;;5.28;2.60;;;18.80;83.30;;;;;;5311391;27;20044;-41
2024/04/12 09:06:40;;;;;;;8.50;2.22;;;18.90;83.20;;;;;;5311242;26;20012;-42
2024/04/12 09:09:13;;;;;;;6.97;1.95;;;18.90;83.20;;;;;;5310899;27;20537;-45
2024/04/12 09:11:44;;;;;;;5.72;1.90;;;18.90;83.10;;;;;;5311194;26;20447;-46
2024/04/12 09:14:10;;;;;;;5.53;1.75;;;18.90;83.00;;;;;;5311256;27;20033;-42
2024/04/12 09:16:44;;;;;;;7.50;1.70;;;18.90;83.00;;;;;;5311135;27;20013;-42
2024/04/12 09:19:14;;;;;;;4.55;1.85;;;19.00;83.00;;;;;;5311116;27;20008;-41
2024/04/12 09:21:55;;;;;;;8.90;1.70;;;19.00;83.00;;;;;;5310819;27;20002;-45
2024/04/12 09:24:22;;;;;;;4.15;1.40;;;19.00;82.90;;;;;;5311226;26;20483;-42
2024/04/12 09:26:58;;;;;;;4.05;1.50;;;19.00;83.60;;;;;;5311214;26;20296;-41
2024/04/12 09:29:27;;;;;;;3.08;1.20;;;19.10;82.80;;;;;;5310869;27;20076;-43
2024/04/12 09:34:46;;;;;;;5.88;1.25;;;19.10;82.80;;;;;;5309730;27;20379;-41
2024/04/12 09:37:29;;;;;;;5.25;1.30;;;19.10;82.80;;;;;;5310930;26;20101;-43
2024/04/12 09:45:20;;;;;;;3.95;1.17;;;19.20;82.70;;;;;;5310995;27;20093;-43
2024/04/12 10:37:46;;;;;;;6.38;1.70;;;20.80;75.90;;;;;;5328005;26;20016;-40
2024/04/12 10:40:11;;;;;;;6.85;1.48;;;20.80;76.30;;;;;;5309457;26;20021;-43
2024/04/12 10:42:38;;;;;;;7.10;1.60;;;20.80;76.60;;;;;;5309972;26;20006;-41
2024/04/12 10:45:07;;;;;;;4.43;1.30;;;20.80;76.60;;;;;;5309950;27;19994;-45
2024/04/12 10:47:37;;;;;;;13.38;1.40;;;20.90;76.80;;;;;;5312821;27;19997;-42
2024/04/12 10:50:05;;;;;;;4.72;1.40;;;20.80;77.00;;;;;;5312943;26;20002;-45
2024/04/12 10:52:31;;;;;;;4.82;1.27;;;20.90;77.20;;;;;;5313004;27;20001;-40
2024/04/12 10:55:08;;;;;;;4.10;1.10;;;20.90;77.30;;;;;;5311089;27;19994;-44
2024/04/12 10:57:40;;;;;;;3.47;1.20;;;20.90;77.40;;;;;;5312458;26;20033;-44
2024/04/12 11:00:14;;;;;;;4.18;1.10;;;20.80;77.60;;;;;;5313143;26;20001;-45
2024/04/12 11:02:43;;;;;;;;;;;20.80;77.70;;;;;;5313758;27;20006;-40
2024/04/12 11:07:48;;;;;;;2.00;0.77;;;20.70;78.10;;;;;;5313074;26;20056;-44
2024/04/12 11:10:37;;;;;;;3.40;1.00;;;20.70;78.20;;;;;;5312525;27;20084;-43
2024/04/12 11:13:06;;;;;;;4.38;0.88;;;20.70;78.40;;;;;;5312873;26;20013;-45
2024/04/12 11:32:12;;;;;;;1.75;0.80;;;20.70;78.80;;;;;;5312879;27;20009;-44
2024/04/12 11:34:40;;;;;;;1.73;0.70;;;20.70;78.80;;;;;;5312564;26;20002;-44
2024/04/12 11:37:08;;;;;;;3.63;0.90;;;20.70;78.80;;;;;;5312532;27;20002;-40
2024/04/12 11:39:35;;;;;;;1.40;0.70;;;20.80;78.80;;;;;;5312294;26;20002;-42
2024/04/12 11:42:03;;;;;;;2.20;0.80;;;20.80;78.80;;;;;;5312349;27;20084;-42
2024/04/12 11:44:29;;;;;;;1.80;0.80;;;20.80;78.80;;;;;;5312441;26;20075;-44
2024/04/12 11:46:56;;;;;;;3.47;0.88;;;20.80;78.90;;;;;;5312104;27;20002;-40
2024/04/12 11:49:25;;;;;;;3.22;0.80;;;20.90;78.90;;;;;;5312427;27;20070;-42
2024/04/12 11:51:59;;;;;;;1.85;0.98;;;20.80;78.90;;;;;;5312792;26;20438;-41
2024/04/12 11:54:29;;;;;;;2.10;0.65;;;20.90;79.00;;;;;;5312461;26;20012;-42
2024/04/12 11:56:59;;;;;;;1.13;0.60;;;20.80;79.00;;;;;;5311640;27;20009;-41
2024/04/12 11:59:29;;;;;;;1.73;0.80;;;20.80;79.10;;;;;;5311986;26;20076;-41
2024/04/12 12:01:59;;;;;;;2.03;0.70;;;20.90;79.10;;;;;;5312153;27;19997;-41
2024/04/12 12:04:34;;;;;;;2.30;0.90;;;20.90;79.10;;;;;;5312176;27;20432;-41
2024/04/12 12:07:04;;;;;;;2.35;0.65;;;20.90;79.10;;;;;;5312298;26;20010;-42
2024/04/12 12:09:32;;;;;;;1.35;0.63;;;21.00;79.10;;;;;;5311977;26;20105;-42
2024/04/12 12:12:00;;;;;;;1.77;0.60;;;21.00;79.10;;;;;;5311950;26;20012;-42
2024/04/12 12:14:27;;;;;;;1.80;0.80;;;21.00;79.10;;;;;;5312117;26;20335;-42
2024/04/12 12:16:59;;;;;;;1.65;0.80;;;21.00;79.10;;;;;;5312034;26;19997;-44
2024/04/12 12:19:25;;;;;;;2.78;0.73;;;21.00;79.10;;;;;;5312004;26;20034;-42
2024/04/12 12:21:51;;;;;;;1.92;0.60;;;21.00;79.10;;;;;;5311977;26;19994;-42
2024/04/12 12:24:16;;;;;;;1.38;0.60;;;21.10;79.10;;;;;;5311833;26;20048;-41
2024/04/12 12:26:43;;;;;;;2.00;0.82;;;21.10;79.10;;;;;;5312096;27;20005;-42
2024/04/12 12:29:09;;;;;;;2.42;0.90;;;21.10;79.00;;;;;;5311721;26;20005;-42
2024/04/12 12:31:34;;;;;;;0.75;0.55;;;21.10;79.00;;;;;;5311612;27;20328;-42
2024/04/12 12:34:00;;;;;;;1.63;0.55;;;21.10;79.10;;;;;;5311854;27;20533;-43
2024/04/12 12:36:27;;;;;;;1.15;0.60;;;21.10;79.00;;;;;;5311720;27;20001;-42
2024/04/12 12:38:55;;;;;;;2.92;0.73;;;21.20;79.90;;;;;;5311516;26;20029;-42
2024/04/12 12:41:21;;;;;;;2.20;0.80;;;21.20;79.10;;;;;;5311619;27;20009;-42
2024/04/12 12:43:47;;;;;;;1.73;0.90;;;21.20;79.10;;;;;;5311692;26;19993;-44
2024/04/12 12:46:20;;;;;;;1.40;0.70;;;21.20;79.10;;;;;;5311207;27;19998;-41
2024/04/12 12:48:48;;;;;;;6.27;1.50;;;21.20;78.80;;;;;;5311517;26;20005;-43
2024/04/12 12:51:15;;;;;;;5.00;1.33;;;21.30;76.30;;;;;;5311331;26;20534;-42
2024/04/12 12:53:44;;;;;;;6.10;1.20;;;21.40;76.50;;;;;;5311477;27;20002;-42
2024/04/12 12:56:10;;;;;;;7.18;1.50;;;21.40;76.70;;;;;;5311481;26;20377;-42
2024/04/12 12:58:37;;;;;;;5.97;1.23;;;21.40;76.90;;;;;;5311375;27;19997;-41
2024/04/12 13:01:07;;;;;;;3.28;1.05;;;21.40;77.10;;;;;;5311302;27;20363;-44
2024/04/12 13:03:35;;;;;;;4.65;1.10;;;21.40;77.30;;;;;;5311275;26;19997;-41
2024/04/12 13:06:07;;;;;;;2.42;1.10;;;21.40;77.50;;;;;;5311466;26;20012;-41
2024/04/12 13:08:36;;;;;;;3.42;1.00;;;21.40;77.70;;;;;;5311200;27;20002;-40
2024/04/12 13:11:08;;;;;;;3.33;1.02;;;21.40;77.90;;;;;;5310826;26;20001;-41
2024/04/12 13:13:36;;;;;;;3.33;1.02;;;21.40;78.00;;;;;;5309612;26;20457;-43
2024/04/12 13:16:10;;;;;;;1.50;0.70;;;21.30;78.10;;;;;;5310979;27;20005;-41
2024/04/12 13:18:43;;;;;;;2.80;0.93;;;21.30;78.20;;;;;;5311190;27;20008;-42
2024/04/12 13:21:10;;;;;;;3.25;0.98;;;21.30;78.30;;;;;;5311291;26;20009;-43
2024/04/12 13:23:37;;;;;;;4.47;1.13;;;21.30;78.30;;;;;;5311477;26;20009;-44
2024/04/12 13:26:06;;;;;;;3.58;1.08;;;21.30;78.50;;;;;;5311361;27;19993;-41
2024/04/12 13:28:32;;;;;;;2.10;0.80;;;21.30;78.50;;;;;;5310864;27;20463;-41
2024/04/12 13:30:58;;;;;;;2.20;0.80;;;21.30;78.60;;;;;;5310733;27;20339;-42
2024/04/12 13:33:23;;;;;;;2.78;0.90;;;21.30;78.70;;;;;;5311072;27;20561;-44
2024/04/12 13:35:52;;;;;;;1.80;0.90;;;21.30;78.80;;;;;;5311023;26;20002;-42
2024/04/12 13:38:18;;;;;;;1.52;0.80;;;21.30;78.90;;;;;;5310909;26;20443;-44
2024/04/12 13:40:54;;;;;;;3.08;0.80;;;21.30;78.90;;;;;;5311288;26;20033;-43
2024/04/12 13:43:23;;;;;;;4.03;0.95;;;21.30;78.90;;;;;;5311007;26;20351;-42
2024/04/12 13:51:19;;;;;;;1.08;0.65;;;21.30;79.10;;;;;;5310423;27;20097;-40
2024/04/12 13:53:50;;;;;;;1.20;0.77;;;21.30;79.20;;;;;;5310771;27;20030;-42
2024/04/12 13:58:58;;;;;;;1.27;0.70;;;21.30;79.30;;;;;;5310719;27;19997;-41
2024/04/12 14:01:25;;;;;;;1.55;0.55;;;21.30;79.30;;;;;;5310522;26;20071;-42
2024/04/12 14:03:58;;;;;;;2.13;0.70;;;21.30;79.40;;;;;;5310425;26;20011;-42
2024/04/12 14:06:25;;;;;;;3.33;0.80;;;21.30;79.50;;;;;;5310671;27;20455;-42
2024/04/12 14:08:54;;;;;;;1.55;0.70;;;21.30;79.50;;;;;;5310632;26;20096;-42
2024/04/12 14:11:21;;;;;;;2.65;0.70;;;21.30;79.60;;;;;;5310359;27;20444;-41
2024/04/12 14:13:47;;;;;;;1.25;0.70;;;21.30;79.60;;;;;;5310524;27;20355;-40
2024/04/12 14:16:13;;;;;;;0.93;0.60;;;21.30;79.70;;;;;;5310106;27;19994;-41
2024/04/12 14:18:39;;;;;;;1.10;0.63;;;21.20;79.80;;;;;;5310294;26;20088;-41
2024/04/12 14:21:06;;;;;;;1.35;0.70;;;21.20;79.80;;;;;;5311583;27;20426;-41
2024/04/12 14:23:32;;;;;;;1.33;0.60;;;21.20;80.70;;;;;;5313610;26;20026;-42
2024/04/12 14:25:58;;;;;;;2.22;0.65;;;21.20;80.00;;;;;;5313407;26;20351;-40
2024/04/12 14:28:24;;;;;;;2.97;0.55;;;21.20;80.10;;;;;;5313308;27;20012;-40
2024/04/12 14:30:51;;;;;;;1.50;0.60;;;21.20;80.10;;;;;;5313409;26;20009;-42